sensor_id;sensor_type;location;lat;lon;timestamp;pressure;altitude;pressure_sealevel;temperature;humidity
39209;BME280;24929;51.982;4.664;2023-05-21T00:02:03;76786.56;;;-143.36;43.08
39209;BME280;24929;51.982;4.664;2023-05-21T00:04:29;76812.66;;;-143.36;42.88
39209;BME280;24929;51.982;4.664;2023-05-21T00:06:56;76794.59;;;-143.36;43.02
39209;BME280;24929;51.982;4.664;2023-05-21T00:09:22;76792.59;;;-143.36;43.05
39209;BME280;24929;51.982;4.664;2023-05-21T00:11:48;76798.59;;;-143.36;42.62
39209;BME280;24929;51.982;4.664;2023-05-21T00:14:13;76798.59;;;-143.36;42.91
39209;BME280;24929;51.982;4.664;2023-05-21T00:16:39;76792.59;;;-143.36;42.94
39209;BME280;24929;51.982;4.664;2023-05-21T00:19:04;76800.59;;;-143.36;43.11
39209;BME280;24929;51.982;4.664;2023-05-21T00:21:30;76790.56;;;-143.36;43.19
39209;BME280;24929;51.982;4.664;2023-05-21T00:23:55;76814.66;;;-143.36;43.33
39209;BME280;24929;51.982;4.664;2023-05-21T00:26:21;76790.56;;;-143.36;43.47
39209;BME280;24929;51.982;4.664;2023-05-21T00:28:48;76810.66;;;-143.36;43.36
39209;BME280;24929;51.982;4.664;2023-05-21T00:31:13;76796.59;;;-143.36;43.38
39209;BME280;24929;51.982;4.664;2023-05-21T00:33:40;76810.66;;;-143.36;43.61
39209;BME280;24929;51.982;4.664;2023-05-21T00:36:05;76802.63;;;-143.36;44.06
39209;BME280;24929;51.982;4.664;2023-05-21T00:38:31;76816.66;;;-143.36;44.41
39209;BME280;24929;51.982;4.664;2023-05-21T00:41:00;76768.50;;;-143.36;43.84
39209;BME280;24929;51.982;4.664;2023-05-21T00:43:25;76798.59;;;-143.36;44.13
39209;BME280;24929;51.982;4.664;2023-05-21T00:45:51;76794.59;;;-143.36;44.57
39209;BME280;24929;51.982;4.664;2023-05-21T00:48:18;76776.53;;;-143.36;44.60
39209;BME280;24929;51.982;4.664;2023-05-21T00:50:45;76790.56;;;-143.36;44.82
39209;BME280;24929;51.982;4.664;2023-05-21T00:53:12;76766.50;;;-143.36;44.95
39209;BME280;24929;51.982;4.664;2023-05-21T00:55:39;76772.50;;;-143.36;45.08
39209;BME280;24929;51.982;4.664;2023-05-21T00:58:05;76774.53;;;-143.36;45.37
39209;BME280;24929;51.982;4.664;2023-05-21T01:00:33;76754.44;;;-143.36;45.47
39209;BME280;24929;51.982;4.664;2023-05-21T01:02:59;76752.44;;;-143.36;45.77
39209;BME280;24929;51.982;4.664;2023-05-21T01:05:28;76752.44;;;-143.36;46.03
39209;BME280;24929;51.982;4.664;2023-05-21T01:07:55;76746.44;;;-143.36;46.02
39209;BME280;24929;51.982;4.664;2023-05-21T01:10:22;76744.41;;;-143.36;46.08
39209;BME280;24929;51.982;4.664;2023-05-21T01:12:48;76752.44;;;-143.36;45.88
39209;BME280;24929;51.982;4.664;2023-05-21T01:15:15;76722.34;;;-143.36;46.06
39209;BME280;24929;51.982;4.664;2023-05-21T01:17:40;76740.41;;;-143.36;46.04
39209;BME280;24929;51.982;4.664;2023-05-21T01:20:06;76716.31;;;-143.36;46.06
39209;BME280;24929;51.982;4.664;2023-05-21T01:22:37;76704.28;;;-143.36;46.28
39209;BME280;24929;51.982;4.664;2023-05-21T01:25:06;76730.38;;;-143.36;46.63
39209;BME280;24929;51.982;4.664;2023-05-21T01:27:31;76742.41;;;-143.36;46.90
39209;BME280;24929;51.982;4.664;2023-05-21T01:29:57;76722.34;;;-143.36;46.79
39209;BME280;24929;51.982;4.664;2023-05-21T01:32:33;76694.25;;;-143.36;46.72
39209;BME280;24929;51.982;4.664;2023-05-21T01:35:14;76676.19;;;-143.36;46.13
39209;BME280;24929;51.982;4.664;2023-05-21T01:40:34;76670.16;;;-143.36;45.91
39209;BME280;24929;51.982;4.664;2023-05-21T01:43:04;76678.19;;;-143.36;46.19
39209;BME280;24929;51.982;4.664;2023-05-21T01:45:30;76692.25;;;-143.36;46.21
39209;BME280;24929;51.982;4.664;2023-05-21T01:47:56;76696.25;;;-143.36;46.37
39209;BME280;24929;51.982;4.664;2023-05-21T01:50:23;76680.19;;;-143.36;46.33
39209;BME280;24929;51.982;4.664;2023-05-21T01:52:54;76646.09;;;-143.36;46.05
39209;BME280;24929;51.982;4.664;2023-05-21T01:55:21;76708.28;;;-143.36;46.20
39209;BME280;24929;51.982;4.664;2023-05-21T01:57:51;76672.19;;;-143.36;46.42
39209;BME280;24929;51.982;4.664;2023-05-21T02:00:18;76698.25;;;-143.36;46.40
39209;BME280;24929;51.982;4.664;2023-05-21T02:02:44;76698.25;;;-143.36;46.39
39209;BME280;24929;51.982;4.664;2023-05-21T02:05:09;76718.31;;;-143.36;46.55
39209;BME280;24929;51.982;4.664;2023-05-21T02:07:35;76698.25;;;-143.36;46.65
39209;BME280;24929;51.982;4.664;2023-05-21T02:10:01;76696.25;;;-143.36;46.66
39209;BME280;24929;51.982;4.664;2023-05-21T02:12:27;76690.22;;;-143.36;46.74
39209;BME280;24929;51.982;4.664;2023-05-21T02:14:52;76692.25;;;-143.36;46.99
39209;BME280;24929;51.982;4.664;2023-05-21T02:17:18;76690.22;;;-143.36;46.71
39209;BME280;24929;51.982;4.664;2023-05-21T02:19:43;76684.22;;;-143.36;46.58
39209;BME280;24929;51.982;4.664;2023-05-21T02:22:09;76652.09;;;-143.36;46.35
39209;BME280;24929;51.982;4.664;2023-05-21T02:24:35;76676.19;;;-143.36;46.17
39209;BME280;24929;51.982;4.664;2023-05-21T02:27:00;76682.22;;;-143.36;46.01
39209;BME280;24929;51.982;4.664;2023-05-21T02:29:27;76670.16;;;-143.36;46.04
39209;BME280;24929;51.982;4.664;2023-05-21T02:31:52;76678.19;;;-143.36;46.00
39209;BME280;24929;51.982;4.664;2023-05-21T02:34:18;76668.16;;;-143.36;45.77
39209;BME280;24929;51.982;4.664;2023-05-21T02:36:45;76662.13;;;-143.36;45.60
39209;BME280;24929;51.982;4.664;2023-05-21T02:39:13;76678.19;;;-143.36;46.03
39209;BME280;24929;51.982;4.664;2023-05-21T02:41:38;76680.19;;;-143.36;45.78
39209;BME280;24929;51.982;4.664;2023-05-21T02:44:03;76670.16;;;-143.36;45.79
39209;BME280;24929;51.982;4.664;2023-05-21T02:46:29;76680.19;;;-143.36;45.69
39209;BME280;24929;51.982;4.664;2023-05-21T02:48:54;76686.22;;;-143.36;45.95
39209;BME280;24929;51.982;4.664;2023-05-21T02:51:20;76682.22;;;-143.36;46.18
39209;BME280;24929;51.982;4.664;2023-05-21T02:53:45;76682.22;;;-143.36;45.81
39209;BME280;24929;51.982;4.664;2023-05-21T02:56:10;76684.22;;;-143.36;45.83
39209;BME280;24929;51.982;4.664;2023-05-21T02:58:36;76676.19;;;-143.36;46.35
39209;BME280;24929;51.982;4.664;2023-05-21T03:01:02;76678.19;;;-143.36;46.39
39209;BME280;24929;51.982;4.664;2023-05-21T03:03:27;76664.16;;;-143.36;46.26
39209;BME280;24929;51.982;4.664;2023-05-21T03:05:52;76672.19;;;-143.36;46.20
39209;BME280;24929;51.982;4.664;2023-05-21T03:08:18;76664.16;;;-143.36;46.36
39209;BME280;24929;51.982;4.664;2023-05-21T03:10:43;76672.19;;;-143.36;46.44
39209;BME280;24929;51.982;4.664;2023-05-21T03:13:08;76688.22;;;-143.36;46.70
39209;BME280;24929;51.982;4.664;2023-05-21T03:15:34;76682.22;;;-143.36;46.68
39209;BME280;24929;51.982;4.664;2023-05-21T03:17:59;76700.28;;;-143.36;46.70
39209;BME280;24929;51.982;4.664;2023-05-21T03:20:24;76696.25;;;-143.36;47.05
39209;BME280;24929;51.982;4.664;2023-05-21T03:22:50;76694.25;;;-143.36;46.86
39209;BME280;24929;51.982;4.664;2023-05-21T03:25:16;76680.19;;;-143.36;46.63
39209;BME280;24929;51.982;4.664;2023-05-21T03:27:42;76684.22;;;-143.36;46.35
39209;BME280;24929;51.982;4.664;2023-05-21T03:30:07;76678.19;;;-143.36;46.35
39209;BME280;24929;51.982;4.664;2023-05-21T03:32:33;76708.28;;;-143.36;46.42
39209;BME280;24929;51.982;4.664;2023-05-21T03:35:01;76706.28;;;-143.36;46.67
39209;BME280;24929;51.982;4.664;2023-05-21T03:37:27;76700.28;;;-143.36;46.33
39209;BME280;24929;51.982;4.664;2023-05-21T03:39:52;76690.22;;;-143.36;46.19
39209;BME280;24929;51.982;4.664;2023-05-21T03:42:17;76690.22;;;-143.36;46.25
39209;BME280;24929;51.982;4.664;2023-05-21T03:44:43;76714.31;;;-143.36;46.34
39209;BME280;24929;51.982;4.664;2023-05-21T03:47:08;76704.28;;;-143.36;46.36
39209;BME280;24929;51.982;4.664;2023-05-21T03:49:33;76692.25;;;-143.36;46.01
39209;BME280;24929;51.982;4.664;2023-05-21T03:51:59;76696.25;;;-143.36;46.08
39209;BME280;24929;51.982;4.664;2023-05-21T03:54:24;76714.31;;;-143.36;46.10
39209;BME280;24929;51.982;4.664;2023-05-21T03:56:49;76710.31;;;-143.36;45.91
39209;BME280;24929;51.982;4.664;2023-05-21T03:59:15;76686.22;;;-143.36;45.74
39209;BME280;24929;51.982;4.664;2023-05-21T04:01:40;76678.19;;;-143.36;45.86
39209;BME280;24929;51.982;4.664;2023-05-21T04:04:06;76678.19;;;-143.36;45.73
39209;BME280;24929;51.982;4.664;2023-05-21T04:06:32;76680.19;;;-143.36;45.61
39209;BME280;24929;51.982;4.664;2023-05-21T04:08:57;76686.22;;;-143.36;45.71
39209;BME280;24929;51.982;4.664;2023-05-21T04:11:22;76682.22;;;-143.36;45.46
39209;BME280;24929;51.982;4.664;2023-05-21T04:13:48;76686.22;;;-143.36;45.31
39209;BME280;24929;51.982;4.664;2023-05-21T04:16:13;76652.09;;;-143.36;45.46
39209;BME280;24929;51.982;4.664;2023-05-21T04:18:43;76666.16;;;-143.36;45.31
39209;BME280;24929;51.982;4.664;2023-05-21T04:21:12;76624.00;;;-143.36;45.11
39209;BME280;24929;51.982;4.664;2023-05-21T04:23:38;76670.16;;;-143.36;45.10
39209;BME280;24929;51.982;4.664;2023-05-21T04:26:03;76670.16;;;-143.36;45.17
39209;BME280;24929;51.982;4.664;2023-05-21T04:28:29;76670.16;;;-143.36;45.17
39209;BME280;24929;51.982;4.664;2023-05-21T04:30:54;76674.19;;;-143.36;45.58
39209;BME280;24929;51.982;4.664;2023-05-21T04:33:23;76676.19;;;-143.36;45.27
39209;BME280;24929;51.982;4.664;2023-05-21T04:35:50;76678.19;;;-143.36;45.46
39209;BME280;24929;51.982;4.664;2023-05-21T04:38:18;76646.09;;;-143.36;45.60
39209;BME280;24929;51.982;4.664;2023-05-21T04:40:48;76656.13;;;-143.36;45.54
39209;BME280;24929;51.982;4.664;2023-05-21T04:43:16;76648.09;;;-143.36;45.37
39209;BME280;24929;51.982;4.664;2023-05-21T04:45:42;76726.34;;;-143.36;46.48
39209;BME280;24929;51.982;4.664;2023-05-21T04:48:07;76726.34;;;-143.36;46.76
39209;BME280;24929;51.982;4.664;2023-05-21T04:50:33;76704.28;;;-143.36;46.21
39209;BME280;24929;51.982;4.664;2023-05-21T04:52:58;76698.25;;;-143.36;46.16
39209;BME280;24929;51.982;4.664;2023-05-21T04:55:24;76740.41;;;-143.36;47.04
39209;BME280;24929;51.982;4.664;2023-05-21T04:57:50;76724.34;;;-143.36;47.08
39209;BME280;24929;51.982;4.664;2023-05-21T05:00:15;76694.25;;;-143.36;46.95
39209;BME280;24929;51.982;4.664;2023-05-21T05:02:41;76752.44;;;-143.36;47.80
39209;BME280;24929;51.982;4.664;2023-05-21T05:05:07;76746.44;;;-143.36;48.34
39209;BME280;24929;51.982;4.664;2023-05-21T05:07:33;76756.47;;;-143.36;48.59
39209;BME280;24929;51.982;4.664;2023-05-21T05:09:58;76752.44;;;-143.36;49.21
39209;BME280;24929;51.982;4.664;2023-05-21T05:12:23;76762.47;;;-143.36;49.56
39209;BME280;24929;51.982;4.664;2023-05-21T05:14:49;76748.44;;;-143.36;49.77
39209;BME280;24929;51.982;4.664;2023-05-21T05:17:14;76750.44;;;-143.36;49.74
39209;BME280;24929;51.982;4.664;2023-05-21T05:19:40;76746.44;;;-143.36;50.21
39209;BME280;24929;51.982;4.664;2023-05-21T05:22:06;76738.41;;;-143.36;49.87
39209;BME280;24929;51.982;4.664;2023-05-21T05:24:31;76732.38;;;-143.36;49.97
39209;BME280;24929;51.982;4.664;2023-05-21T05:26:57;76704.28;;;-143.36;49.84
39209;BME280;24929;51.982;4.664;2023-05-21T05:29:22;76708.28;;;-143.36;49.80
39209;BME280;24929;51.982;4.664;2023-05-21T05:31:47;76700.28;;;-143.36;49.60
39209;BME280;24929;51.982;4.664;2023-05-21T05:34:13;76664.16;;;-143.36;49.01
39209;BME280;24929;51.982;4.664;2023-05-21T05:36:38;76646.09;;;-143.36;48.78
39209;BME280;24929;51.982;4.664;2023-05-21T05:39:03;76644.06;;;-143.36;49.09
39209;BME280;24929;51.982;4.664;2023-05-21T05:41:29;76664.16;;;-143.36;49.23
39209;BME280;24929;51.982;4.664;2023-05-21T05:43:55;76648.09;;;-143.36;48.83
39209;BME280;24929;51.982;4.664;2023-05-21T05:46:20;76662.13;;;-143.36;49.07
39209;BME280;24929;51.982;4.664;2023-05-21T05:48:45;76642.06;;;-143.36;49.05
39209;BME280;24929;51.982;4.664;2023-05-21T05:51:11;76628.03;;;-143.36;48.63
39209;BME280;24929;51.982;4.664;2023-05-21T05:53:36;76632.03;;;-143.36;48.95
39209;BME280;24929;51.982;4.664;2023-05-21T05:56:02;76595.91;;;-143.36;48.49
39209;BME280;24929;51.982;4.664;2023-05-21T05:58:29;76593.91;;;-143.36;48.55
39209;BME280;24929;51.982;4.664;2023-05-21T06:00:55;76583.88;;;-143.36;48.28
39209;BME280;24929;51.982;4.664;2023-05-21T06:03:25;76561.81;;;-143.36;48.16
39209;BME280;24929;51.982;4.664;2023-05-21T06:09:04;76620.00;;;-143.36;48.54
39209;BME280;24929;51.982;4.664;2023-05-21T06:11:29;76613.97;;;-143.36;48.52
39209;BME280;24929;51.982;4.664;2023-05-21T06:13:55;76628.03;;;-143.36;49.00
39209;BME280;24929;51.982;4.664;2023-05-21T06:16:20;76595.91;;;-143.36;48.33
39209;BME280;24929;51.982;4.664;2023-05-21T06:18:46;76569.81;;;-143.36;48.14
39209;BME280;24929;51.982;4.664;2023-05-21T06:21:11;76595.91;;;-143.36;48.48
39209;BME280;24929;51.982;4.664;2023-05-21T06:23:36;76591.91;;;-143.36;48.66
39209;BME280;24929;51.982;4.664;2023-05-21T06:26:03;76587.88;;;-143.36;48.43
39209;BME280;24929;51.982;4.664;2023-05-21T06:28:28;76618.00;;;-143.36;48.62
39209;BME280;24929;51.982;4.664;2023-05-21T06:30:53;76597.91;;;-143.36;48.82
39209;BME280;24929;51.982;4.664;2023-05-21T06:33:19;76609.97;;;-143.36;48.73
39209;BME280;24929;51.982;4.664;2023-05-21T06:35:45;76567.81;;;-143.36;48.88
39209;BME280;24929;51.982;4.664;2023-05-21T06:38:11;76559.78;;;-143.36;48.44
39209;BME280;24929;51.982;4.664;2023-05-21T06:40:36;76547.75;;;-143.36;48.32
39209;BME280;24929;51.982;4.664;2023-05-21T06:43:01;76547.75;;;-143.36;48.08
39209;BME280;24929;51.982;4.664;2023-05-21T06:45:28;76531.69;;;-143.36;47.78
39209;BME280;24929;51.982;4.664;2023-05-21T06:47:54;76545.75;;;-143.36;48.39
39209;BME280;24929;51.982;4.664;2023-05-21T06:50:19;76545.75;;;-143.36;48.12
39209;BME280;24929;51.982;4.664;2023-05-21T06:52:45;76549.75;;;-143.36;48.14
39209;BME280;24929;51.982;4.664;2023-05-21T06:55:10;76511.63;;;-143.36;48.01
39209;BME280;24929;51.982;4.664;2023-05-21T06:57:36;76503.59;;;-143.36;48.01
39209;BME280;24929;51.982;4.664;2023-05-21T07:00:02;76511.63;;;-143.36;47.96
39209;BME280;24929;51.982;4.664;2023-05-21T07:02:28;76513.63;;;-143.36;47.28
39209;BME280;24929;51.982;4.664;2023-05-21T07:04:53;76549.75;;;-143.36;47.63
39209;BME280;24929;51.982;4.664;2023-05-21T07:07:19;76535.72;;;-143.36;47.90
39209;BME280;24929;51.982;4.664;2023-05-21T07:09:45;76545.75;;;-143.36;47.49
39209;BME280;24929;51.982;4.664;2023-05-21T07:12:10;76531.69;;;-143.36;47.37
39209;BME280;24929;51.982;4.664;2023-05-21T07:14:35;76507.63;;;-143.36;46.98
39209;BME280;24929;51.982;4.664;2023-05-21T07:17:01;76491.56;;;-143.36;46.72
39209;BME280;24929;51.982;4.664;2023-05-21T07:19:26;76515.66;;;-143.36;46.83
39209;BME280;24929;51.982;4.664;2023-05-21T07:21:52;76557.78;;;-143.36;46.71
39209;BME280;24929;51.982;4.664;2023-05-21T07:24:17;76513.63;;;-143.36;46.42
39209;BME280;24929;51.982;4.664;2023-05-21T07:26:42;76499.59;;;-143.36;46.79
39209;BME280;24929;51.982;4.664;2023-05-21T07:29:08;76469.50;;;-143.36;46.33
39209;BME280;24929;51.982;4.664;2023-05-21T07:31:33;76481.53;;;-143.36;46.23
39209;BME280;24929;51.982;4.664;2023-05-21T07:33:59;76497.59;;;-143.36;46.81
39209;BME280;24929;51.982;4.664;2023-05-21T07:36:24;76493.56;;;-143.36;46.55
39209;BME280;24929;51.982;4.664;2023-05-21T07:38:50;76481.53;;;-143.36;46.26
39209;BME280;24929;51.982;4.664;2023-05-21T07:41:15;76493.56;;;-143.36;46.01
39209;BME280;24929;51.982;4.664;2023-05-21T07:43:41;76477.53;;;-143.36;46.23
39209;BME280;24929;51.982;4.664;2023-05-21T07:52:23;76433.38;;;-143.36;45.93
39209;BME280;24929;51.982;4.664;2023-05-21T08:01:11;76395.25;;;-143.36;45.11
39209;BME280;24929;51.982;4.664;2023-05-21T08:03:36;76399.25;;;-143.36;45.02
39209;BME280;24929;51.982;4.664;2023-05-21T08:06:02;76397.25;;;-143.36;45.33
39209;BME280;24929;51.982;4.664;2023-05-21T08:08:28;76425.34;;;-143.36;45.26
39209;BME280;24929;51.982;4.664;2023-05-21T08:10:53;76461.47;;;-143.36;45.64
39209;BME280;24929;51.982;4.664;2023-05-21T08:13:19;76443.41;;;-143.36;45.59
39209;BME280;24929;51.982;4.664;2023-05-21T08:15:44;76399.25;;;-143.36;45.57
39209;BME280;24929;51.982;4.664;2023-05-21T08:18:10;76389.22;;;-143.36;44.98
39209;BME280;24929;51.982;4.664;2023-05-21T08:20:35;76361.13;;;-143.36;44.44
39209;BME280;24929;51.982;4.664;2023-05-21T08:23:01;76355.13;;;-143.36;44.73
39209;BME280;24929;51.982;4.664;2023-05-21T08:25:26;76369.16;;;-143.36;44.56
39209;BME280;24929;51.982;4.664;2023-05-21T08:27:52;76357.13;;;-143.36;44.46
39209;BME280;24929;51.982;4.664;2023-05-21T08:30:17;76329.03;;;-143.36;44.15
39209;BME280;24929;51.982;4.664;2023-05-21T08:32:43;76367.16;;;-143.36;43.64
39209;BME280;24929;51.982;4.664;2023-05-21T08:35:08;76329.03;;;-143.36;43.46
39209;BME280;24929;51.982;4.664;2023-05-21T08:37:34;76325.00;;;-143.36;43.20
39209;BME280;24929;51.982;4.664;2023-05-21T08:39:59;76323.00;;;-143.36;43.00
39209;BME280;24929;51.982;4.664;2023-05-21T08:42:57;76232.72;;;-143.36;42.75
39209;BME280;24929;51.982;4.664;2023-05-21T08:45:37;76252.78;;;-143.36;42.91
39209;BME280;24929;51.982;4.664;2023-05-21T08:48:08;76272.84;;;-143.36;42.20
39209;BME280;24929;51.982;4.664;2023-05-21T08:50:36;76343.06;;;-143.36;43.31
39209;BME280;24929;51.982;4.664;2023-05-21T08:53:02;76300.94;;;-143.36;42.44
39209;BME280;24929;51.982;4.664;2023-05-21T08:55:27;76292.91;;;-143.36;41.95
39209;BME280;24929;51.982;4.664;2023-05-21T08:57:53;76341.06;;;-143.36;42.73
39209;BME280;24929;51.982;4.664;2023-05-21T09:00:19;76371.16;;;-143.36;43.02
39209;BME280;24929;51.982;4.664;2023-05-21T09:02:45;76407.28;;;-143.36;43.33
39209;BME280;24929;51.982;4.664;2023-05-21T09:05:11;76353.09;;;-143.36;42.84
39209;BME280;24929;51.982;4.664;2023-05-21T09:08:04;76302.94;;;-143.36;42.27
39209;BME280;24929;51.982;4.664;2023-05-21T09:10:45;76280.88;;;-143.36;42.02
39209;BME280;24929;51.982;4.664;2023-05-21T09:13:13;76264.81;;;-143.36;42.00
39209;BME280;24929;51.982;4.664;2023-05-21T09:15:39;76278.84;;;-143.36;41.95
39209;BME280;24929;51.982;4.664;2023-05-21T09:18:05;76280.88;;;-143.36;41.67
39209;BME280;24929;51.982;4.664;2023-05-21T09:20:31;76276.84;;;-143.36;42.78
39209;BME280;24929;51.982;4.664;2023-05-21T09:23:04;76214.66;;;-143.36;41.48
39209;BME280;24929;51.982;4.664;2023-05-21T09:25:31;76252.78;;;-143.36;41.72
39209;BME280;24929;51.982;4.664;2023-05-21T09:28:00;76242.75;;;-143.36;41.05
39209;BME280;24929;51.982;4.664;2023-05-21T09:30:26;76248.75;;;-143.36;41.52
39209;BME280;24929;51.982;4.664;2023-05-21T09:32:56;76196.59;;;-143.36;41.10
39209;BME280;24929;51.982;4.664;2023-05-21T09:35:22;76206.63;;;-143.36;40.66
39209;BME280;24929;51.982;4.664;2023-05-21T09:37:49;76154.44;;;-143.36;41.05
39209;BME280;24929;51.982;4.664;2023-05-21T09:40:16;76126.38;;;-143.36;40.55
39209;BME280;24929;51.982;4.664;2023-05-21T09:43:01;76114.31;;;-143.36;39.42
39209;BME280;24929;51.982;4.664;2023-05-21T09:45:27;76142.41;;;-143.36;40.17
39209;BME280;24929;51.982;4.664;2023-05-21T09:47:54;76134.38;;;-143.36;39.75
39209;BME280;24929;51.982;4.664;2023-05-21T09:50:26;76122.34;;;-143.36;39.69
39209;BME280;24929;51.982;4.664;2023-05-21T09:52:53;76132.38;;;-143.36;40.17
39209;BME280;24929;51.982;4.664;2023-05-21T09:55:23;76068.19;;;-143.36;39.63
39209;BME280;24929;51.982;4.664;2023-05-21T09:57:50;76104.28;;;-143.36;39.68
39209;BME280;24929;51.982;4.664;2023-05-21T10:00:26;76062.16;;;-143.36;39.32
39209;BME280;24929;51.982;4.664;2023-05-21T10:02:57;76128.38;;;-143.36;39.83
39209;BME280;24929;51.982;4.664;2023-05-21T10:05:25;76094.25;;;-143.36;39.23
39209;BME280;24929;51.982;4.664;2023-05-21T10:07:52;76162.47;;;-143.36;39.90
39209;BME280;24929;51.982;4.664;2023-05-21T10:10:22;76152.44;;;-143.36;39.72
39209;BME280;24929;51.982;4.664;2023-05-21T10:12:52;76068.19;;;-143.36;39.99
39209;BME280;24929;51.982;4.664;2023-05-21T10:15:22;76074.19;;;-143.36;39.54
39209;BME280;24929;51.982;4.664;2023-05-21T10:17:48;76084.22;;;-143.36;39.50
39209;BME280;24929;51.982;4.664;2023-05-21T10:20:14;76104.28;;;-143.36;39.09
39209;BME280;24929;51.982;4.664;2023-05-21T10:22:40;76052.13;;;-143.36;39.52
39209;BME280;24929;51.982;4.664;2023-05-21T10:25:07;76007.97;;;-143.36;39.14
39209;BME280;24929;51.982;4.664;2023-05-21T10:27:34;76032.06;;;-143.36;39.19
39209;BME280;24929;51.982;4.664;2023-05-21T10:30:00;76040.09;;;-143.36;39.01
39209;BME280;24929;51.982;4.664;2023-05-21T10:32:26;76040.09;;;-143.36;39.68
39209;BME280;24929;51.982;4.664;2023-05-21T10:34:56;76044.09;;;-143.36;39.81
39209;BME280;24929;51.982;4.664;2023-05-21T10:37:26;76042.09;;;-143.36;39.22
39209;BME280;24929;51.982;4.664;2023-05-21T10:39:55;76066.16;;;-143.36;38.70
39209;BME280;24929;51.982;4.664;2023-05-21T10:56:29;75979.88;;;-143.36;38.18
39209;BME280;24929;51.982;4.664;2023-05-21T10:59:13;76028.03;;;-143.36;39.17
39209;BME280;24929;51.982;4.664;2023-05-21T11:01:42;75971.88;;;-143.36;38.61
39209;BME280;24929;51.982;4.664;2023-05-21T11:04:09;76022.03;;;-143.36;38.58
39209;BME280;24929;51.982;4.664;2023-05-21T11:06:36;76034.06;;;-143.36;38.61
39209;BME280;24929;51.982;4.664;2023-05-21T11:09:11;75963.84;;;-143.36;38.54
39209;BME280;24929;51.982;4.664;2023-05-21T11:11:50;75957.81;;;-143.36;38.60
39209;BME280;24929;51.982;4.664;2023-05-21T11:14:38;75965.84;;;-143.36;39.11
39209;BME280;24929;51.982;4.664;2023-05-21T11:17:36;75887.59;;;-143.36;37.84
39209;BME280;24929;51.982;4.664;2023-05-21T11:20:12;75909.66;;;-143.36;38.57
39209;BME280;24929;51.982;4.664;2023-05-21T11:22:40;75949.78;;;-143.36;38.65
39209;BME280;24929;51.982;4.664;2023-05-21T11:25:06;75945.78;;;-143.36;38.46
39209;BME280;24929;51.982;4.664;2023-05-21T11:27:33;75933.75;;;-143.36;37.89
39209;BME280;24929;51.982;4.664;2023-05-21T11:29:59;75935.75;;;-143.36;38.23
39209;BME280;24929;51.982;4.664;2023-05-21T11:32:25;75897.63;;;-143.36;37.87
39209;BME280;24929;51.982;4.664;2023-05-21T11:34:50;75883.59;;;-143.36;37.89
39209;BME280;24929;51.982;4.664;2023-05-21T11:39:48;75909.66;;;-143.36;37.63
39209;BME280;24929;51.982;4.664;2023-05-21T11:42:36;75847.47;;;-143.36;38.13
39209;BME280;24929;51.982;4.664;2023-05-21T11:45:03;75911.66;;;-143.36;38.60
39209;BME280;24929;51.982;4.664;2023-05-21T11:47:30;75931.72;;;-143.36;38.40
39209;BME280;24929;51.982;4.664;2023-05-21T11:49:59;75869.53;;;-143.36;38.73
39209;BME280;24929;51.982;4.664;2023-05-21T11:52:28;75881.56;;;-143.36;38.18
39209;BME280;24929;51.982;4.664;2023-05-21T11:54:54;75887.59;;;-143.36;37.78
39209;BME280;24929;51.982;4.664;2023-05-21T11:57:21;75887.59;;;-143.36;37.94
39209;BME280;24929;51.982;4.664;2023-05-21T11:59:48;75865.53;;;-143.36;37.80
39209;BME280;24929;51.982;4.664;2023-05-21T12:02:20;75855.50;;;-143.36;38.09
39209;BME280;24929;51.982;4.664;2023-05-21T12:04:47;75849.47;;;-143.36;37.84
39209;BME280;24929;51.982;4.664;2023-05-21T12:07:14;75849.47;;;-143.36;38.20
39209;BME280;24929;51.982;4.664;2023-05-21T12:09:45;75839.44;;;-143.36;37.53
39209;BME280;24929;51.982;4.664;2023-05-21T12:12:13;75929.72;;;-143.36;38.31
39209;BME280;24929;51.982;4.664;2023-05-21T12:14:42;75903.66;;;-143.36;38.27
39209;BME280;24929;51.982;4.664;2023-05-21T12:17:08;75877.56;;;-143.36;38.34
39209;BME280;24929;51.982;4.664;2023-05-21T12:19:35;75857.50;;;-143.36;38.43
39209;BME280;24929;51.982;4.664;2023-05-21T12:22:04;75839.44;;;-143.36;37.90
39209;BME280;24929;51.982;4.664;2023-05-21T12:24:30;75879.56;;;-143.36;37.99
39209;BME280;24929;51.982;4.664;2023-05-21T12:26:57;75879.56;;;-143.36;38.08
39209;BME280;24929;51.982;4.664;2023-05-21T12:29:30;75769.22;;;-143.36;37.62
39209;BME280;24929;51.982;4.664;2023-05-21T12:32:00;75727.09;;;-143.36;37.32
39209;BME280;24929;51.982;4.664;2023-05-21T12:34:42;75723.06;;;-143.36;36.68
39209;BME280;24929;51.982;4.664;2023-05-21T12:37:11;75674.91;;;-143.36;36.60
39209;BME280;24929;51.982;4.664;2023-05-21T12:39:40;75725.06;;;-143.36;37.22
39209;BME280;24929;51.982;4.664;2023-05-21T12:42:07;75745.13;;;-143.36;37.17
39209;BME280;24929;51.982;4.664;2023-05-21T12:44:33;75729.09;;;-143.36;37.00
39209;BME280;24929;51.982;4.664;2023-05-21T12:46:58;75751.16;;;-143.36;37.21
39209;BME280;24929;51.982;4.664;2023-05-21T12:49:34;75731.09;;;-143.36;37.21
39209;BME280;24929;51.982;4.664;2023-05-21T12:52:07;75753.16;;;-143.36;36.96
39209;BME280;24929;51.982;4.664;2023-05-21T12:54:34;75735.09;;;-143.36;37.15
39209;BME280;24929;51.982;4.664;2023-05-21T12:57:07;75674.91;;;-143.36;36.72
39209;BME280;24929;51.982;4.664;2023-05-21T12:59:52;75686.97;;;-143.36;36.49
39209;BME280;24929;51.982;4.664;2023-05-21T13:02:21;75783.25;;;-143.36;37.50
39209;BME280;24929;51.982;4.664;2023-05-21T13:04:48;75757.19;;;-143.36;37.84
39209;BME280;24929;51.982;4.664;2023-05-21T13:07:14;75809.34;;;-143.36;37.90
39209;BME280;24929;51.982;4.664;2023-05-21T13:09:40;75819.38;;;-143.36;37.51
39209;BME280;24929;51.982;4.664;2023-05-21T13:12:06;75765.22;;;-143.36;37.88
39209;BME280;24929;51.982;4.664;2023-05-21T13:14:32;75733.09;;;-143.36;37.42
39209;BME280;24929;51.982;4.664;2023-05-21T13:16:57;75743.13;;;-143.36;37.44